sensor_id;sensor_type;location;lat;lon;timestamp;P1;durP1;ratioP1;P2;durP2;ratioP2
48014;SDS011;33780;51.034;7.120;2023-02-15T00:00:52;12.77;;;5.68;;
48014;SDS011;33780;51.034;7.120;2023-02-15T00:03:19;12.52;;;5.40;;
48014;SDS011;33780;51.034;7.120;2023-02-15T00:05:45;15.00;;;5.80;;
48014;SDS011;33780;51.034;7.120;2023-02-15T00:08:10;11.02;;;5.43;;
48014;SDS011;33780;51.034;7.120;2023-02-15T00:10:36;17.70;;;6.32;;
48014;SDS011;33780;51.034;7.120;2023-02-15T00:13:01;12.50;;;6.00;;
48014;SDS011;33780;51.034;7.120;2023-02-15T00:15:27;13.95;;;6.40;;
48014;SDS011;33780;51.034;7.120;2023-02-15T00:17:52;14.13;;;5.50;;
48014;SDS011;33780;51.034;7.120;2023-02-15T00:20:18;12.93;;;5.68;;
48014;SDS011;33780;51.034;7.120;2023-02-15T00:22:43;13.30;;;5.85;;
48014;SDS011;33780;51.034;7.120;2023-02-15T00:25:09;14.50;;;5.70;;
48014;SDS011;33780;51.034;7.120;2023-02-15T00:27:34;11.00;;;5.30;;
48014;SDS011;33780;51.034;7.120;2023-02-15T00:29:59;12.70;;;5.82;;
48014;SDS011;33780;51.034;7.120;2023-02-15T00:32:25;11.98;;;5.78;;
48014;SDS011;33780;51.034;7.120;2023-02-15T00:34:50;12.45;;;6.03;;
48014;SDS011;33780;51.034;7.120;2023-02-15T00:37:15;13.60;;;5.75;;
48014;SDS011;33780;51.034;7.120;2023-02-15T00:39:40;12.65;;;5.60;;
48014;SDS011;33780;51.034;7.120;2023-02-15T00:42:06;12.48;;;5.80;;
48014;SDS011;33780;51.034;7.120;2023-02-15T00:44:31;12.90;;;5.72;;
48014;SDS011;33780;51.034;7.120;2023-02-15T00:46:56;13.65;;;5.60;;
48014;SDS011;33780;51.034;7.120;2023-02-15T00:49:22;10.30;;;4.93;;
48014;SDS011;33780;51.034;7.120;2023-02-15T00:51:47;11.90;;;5.40;;
48014;SDS011;33780;51.034;7.120;2023-02-15T00:54:12;9.43;;;4.78;;
48014;SDS011;33780;51.034;7.120;2023-02-15T00:56:37;15.45;;;5.70;;
48014;SDS011;33780;51.034;7.120;2023-02-15T00:59:03;12.15;;;4.90;;
48014;SDS011;33780;51.034;7.120;2023-02-15T01:01:28;15.80;;;5.45;;
48014;SDS011;33780;51.034;7.120;2023-02-15T01:03:53;11.05;;;4.93;;
48014;SDS011;33780;51.034;7.120;2023-02-15T01:06:19;15.30;;;5.95;;
48014;SDS011;33780;51.034;7.120;2023-02-15T01:08:44;12.93;;;5.70;;
48014;SDS011;33780;51.034;7.120;2023-02-15T01:11:11;16.67;;;6.78;;
48014;SDS011;33780;51.034;7.120;2023-02-15T01:13:39;16.35;;;6.32;;
48014;SDS011;33780;51.034;7.120;2023-02-15T01:16:05;15.98;;;7.20;;
48014;SDS011;33780;51.034;7.120;2023-02-15T01:18:31;15.75;;;7.82;;
48014;SDS011;33780;51.034;7.120;2023-02-15T01:20:56;21.08;;;7.80;;
48014;SDS011;33780;51.034;7.120;2023-02-15T01:23:22;17.20;;;8.02;;
48014;SDS011;33780;51.034;7.120;2023-02-15T01:25:47;15.93;;;8.15;;
48014;SDS011;33780;51.034;7.120;2023-02-15T01:28:12;18.85;;;8.75;;
48014;SDS011;33780;51.034;7.120;2023-02-15T01:30:38;18.17;;;8.23;;
48014;SDS011;33780;51.034;7.120;2023-02-15T01:33:03;17.15;;;8.63;;
48014;SDS011;33780;51.034;7.120;2023-02-15T01:35:28;21.55;;;9.40;;
48014;SDS011;33780;51.034;7.120;2023-02-15T01:37:54;19.27;;;9.60;;
48014;SDS011;33780;51.034;7.120;2023-02-15T01:40:20;19.88;;;9.90;;
48014;SDS011;33780;51.034;7.120;2023-02-15T01:42:45;22.80;;;10.38;;
48014;SDS011;33780;51.034;7.120;2023-02-15T01:45:19;18.73;;;9.30;;
48014;SDS011;33780;51.034;7.120;2023-02-15T01:48:22;24.20;;;10.18;;
48014;SDS011;33780;51.034;7.120;2023-02-15T01:50:50;21.83;;;10.07;;
48014;SDS011;33780;51.034;7.120;2023-02-15T01:56:17;22.50;;;10.85;;
48014;SDS011;33780;51.034;7.120;2023-02-15T01:58:46;25.60;;;10.77;;
48014;SDS011;33780;51.034;7.120;2023-02-15T02:01:12;23.10;;;10.30;;
48014;SDS011;33780;51.034;7.120;2023-02-15T02:03:50;23.35;;;10.98;;
48014;SDS011;33780;51.034;7.120;2023-02-15T02:06:23;25.67;;;12.30;;
48014;SDS011;33780;51.034;7.120;2023-02-15T02:08:49;26.10;;;11.70;;
48014;SDS011;33780;51.034;7.120;2023-02-15T02:11:14;23.88;;;10.88;;
48014;SDS011;33780;51.034;7.120;2023-02-15T02:13:40;27.73;;;11.45;;
48014;SDS011;33780;51.034;7.120;2023-02-15T02:21:33;26.50;;;11.13;;
48014;SDS011;33780;51.034;7.120;2023-02-15T02:35:56;16.30;;;7.32;;
48014;SDS011;33780;51.034;7.120;2023-02-15T02:38:32;18.58;;;8.25;;
48014;SDS011;33780;51.034;7.120;2023-02-15T02:41:16;20.95;;;8.38;;
48014;SDS011;33780;51.034;7.120;2023-02-15T02:46:45;15.23;;;6.85;;
48014;SDS011;33780;51.034;7.120;2023-02-15T02:49:29;17.08;;;7.07;;
48014;SDS011;33780;51.034;7.120;2023-02-15T02:52:01;15.73;;;6.55;;
48014;SDS011;33780;51.034;7.120;2023-02-15T02:54:28;14.18;;;6.25;;
48014;SDS011;33780;51.034;7.120;2023-02-15T02:56:56;15.07;;;6.38;;
48014;SDS011;33780;51.034;7.120;2023-02-15T02:59:27;17.50;;;6.78;;
48014;SDS011;33780;51.034;7.120;2023-02-15T03:01:59;13.57;;;6.13;;
48014;SDS011;33780;51.034;7.120;2023-02-15T03:04:28;16.50;;;6.32;;
48014;SDS011;33780;51.034;7.120;2023-02-15T03:06:59;14.90;;;5.93;;
48014;SDS011;33780;51.034;7.120;2023-02-15T03:09:31;15.75;;;6.13;;
48014;SDS011;33780;51.034;7.120;2023-02-15T03:12:11;15.57;;;6.57;;
48014;SDS011;33780;51.034;7.120;2023-02-15T03:14:40;15.50;;;6.03;;
48014;SDS011;33780;51.034;7.120;2023-02-15T03:17:07;12.98;;;6.30;;
48014;SDS011;33780;51.034;7.120;2023-02-15T03:19:34;13.90;;;5.72;;
48014;SDS011;33780;51.034;7.120;2023-02-15T03:22:10;14.23;;;5.63;;
48014;SDS011;33780;51.034;7.120;2023-02-15T03:27:22;11.75;;;5.57;;
48014;SDS011;33780;51.034;7.120;2023-02-15T03:29:52;14.43;;;6.13;;
48014;SDS011;33780;51.034;7.120;2023-02-15T03:32:21;12.05;;;5.35;;
48014;SDS011;33780;51.034;7.120;2023-02-15T03:34:48;13.23;;;5.70;;
48014;SDS011;33780;51.034;7.120;2023-02-15T03:39:54;18.15;;;6.18;;
48014;SDS011;33780;51.034;7.120;2023-02-15T03:42:49;13.15;;;5.82;;
48014;SDS011;33780;51.034;7.120;2023-02-15T03:45:22;13.40;;;5.80;;
48014;SDS011;33780;51.034;7.120;2023-02-15T03:47:50;13.82;;;5.43;;
48014;SDS011;33780;51.034;7.120;2023-02-15T03:50:21;16.23;;;6.70;;
48014;SDS011;33780;51.034;7.120;2023-02-15T03:53:10;12.48;;;5.68;;
48014;SDS011;33780;51.034;7.120;2023-02-15T03:55:39;13.38;;;5.13;;
48014;SDS011;33780;51.034;7.120;2023-02-15T03:58:04;15.60;;;5.90;;
48014;SDS011;33780;51.034;7.120;2023-02-15T04:00:56;14.48;;;5.93;;
48014;SDS011;33780;51.034;7.120;2023-02-15T04:03:45;13.80;;;5.13;;
48014;SDS011;33780;51.034;7.120;2023-02-15T04:06:20;12.55;;;5.40;;
48014;SDS011;33780;51.034;7.120;2023-02-15T04:08:45;15.52;;;5.78;;
48014;SDS011;33780;51.034;7.120;2023-02-15T04:11:30;13.90;;;5.40;;
48014;SDS011;33780;51.034;7.120;2023-02-15T04:13:55;16.48;;;6.78;;
48014;SDS011;33780;51.034;7.120;2023-02-15T04:16:22;12.77;;;5.43;;
48014;SDS011;33780;51.034;7.120;2023-02-15T04:18:48;15.43;;;6.38;;
48014;SDS011;33780;51.034;7.120;2023-02-15T04:21:32;12.73;;;5.72;;
48014;SDS011;33780;51.034;7.120;2023-02-15T04:24:16;17.65;;;6.45;;
48014;SDS011;33780;51.034;7.120;2023-02-15T04:27:01;15.13;;;6.15;;
48014;SDS011;33780;51.034;7.120;2023-02-15T04:29:28;15.20;;;6.25;;
48014;SDS011;33780;51.034;7.120;2023-02-15T04:31:56;17.35;;;5.38;;
48014;SDS011;33780;51.034;7.120;2023-02-15T04:34:22;15.18;;;5.82;;
48014;SDS011;33780;51.034;7.120;2023-02-15T04:36:48;15.13;;;5.65;;
48014;SDS011;33780;51.034;7.120;2023-02-15T04:39:15;21.25;;;6.32;;
48014;SDS011;33780;51.034;7.120;2023-02-15T04:41:41;13.45;;;5.47;;
48014;SDS011;33780;51.034;7.120;2023-02-15T04:44:06;16.50;;;6.10;;
48014;SDS011;33780;51.034;7.120;2023-02-15T04:46:32;12.85;;;5.03;;
48014;SDS011;33780;51.034;7.120;2023-02-15T04:48:58;12.80;;;5.57;;
48014;SDS011;33780;51.034;7.120;2023-02-15T04:51:23;14.75;;;5.93;;
48014;SDS011;33780;51.034;7.120;2023-02-15T04:53:48;13.73;;;5.45;;
48014;SDS011;33780;51.034;7.120;2023-02-15T04:56:14;14.48;;;6.38;;
48014;SDS011;33780;51.034;7.120;2023-02-15T04:58:39;11.02;;;4.97;;
48014;SDS011;33780;51.034;7.120;2023-02-15T05:01:06;16.48;;;5.75;;
48014;SDS011;33780;51.034;7.120;2023-02-15T05:03:34;14.20;;;5.40;;
48014;SDS011;33780;51.034;7.120;2023-02-15T05:05:59;16.00;;;5.80;;
48014;SDS011;33780;51.034;7.120;2023-02-15T05:08:25;15.05;;;5.88;;
48014;SDS011;33780;51.034;7.120;2023-02-15T05:10:50;14.23;;;6.25;;
48014;SDS011;33780;51.034;7.120;2023-02-15T05:13:15;14.38;;;6.65;;
48014;SDS011;33780;51.034;7.120;2023-02-15T05:15:45;17.30;;;5.97;;
48014;SDS011;33780;51.034;7.120;2023-02-15T05:18:15;14.95;;;5.82;;
48014;SDS011;33780;51.034;7.120;2023-02-15T05:20:41;15.02;;;6.40;;
48014;SDS011;33780;51.034;7.120;2023-02-15T05:23:06;14.05;;;6.38;;
48014;SDS011;33780;51.034;7.120;2023-02-15T05:25:31;19.15;;;6.22;;
48014;SDS011;33780;51.034;7.120;2023-02-15T05:28:15;17.02;;;6.60;;
48014;SDS011;33780;51.034;7.120;2023-02-15T05:30:44;14.25;;;5.80;;
48014;SDS011;33780;51.034;7.120;2023-02-15T05:33:09;13.77;;;5.60;;
48014;SDS011;33780;51.034;7.120;2023-02-15T05:35:35;14.63;;;6.10;;
48014;SDS011;33780;51.034;7.120;2023-02-15T05:38:00;15.00;;;6.25;;
48014;SDS011;33780;51.034;7.120;2023-02-15T05:40:25;18.23;;;5.90;;
48014;SDS011;33780;51.034;7.120;2023-02-15T05:42:51;11.52;;;5.18;;
48014;SDS011;33780;51.034;7.120;2023-02-15T05:45:16;15.00;;;6.55;;
48014;SDS011;33780;51.034;7.120;2023-02-15T05:47:41;15.07;;;5.30;;
48014;SDS011;33780;51.034;7.120;2023-02-15T05:50:08;15.88;;;6.15;;
48014;SDS011;33780;51.034;7.120;2023-02-15T05:52:35;13.98;;;5.65;;
48014;SDS011;33780;51.034;7.120;2023-02-15T05:55:00;13.85;;;6.25;;
48014;SDS011;33780;51.034;7.120;2023-02-15T05:57:27;12.73;;;5.95;;
48014;SDS011;33780;51.034;7.120;2023-02-15T05:59:52;14.07;;;5.95;;
48014;SDS011;33780;51.034;7.120;2023-02-15T06:02:18;17.50;;;6.20;;
48014;SDS011;33780;51.034;7.120;2023-02-15T06:04:49;12.93;;;6.05;;
48014;SDS011;33780;51.034;7.120;2023-02-15T06:07:14;18.75;;;6.65;;
48014;SDS011;33780;51.034;7.120;2023-02-15T06:09:39;14.50;;;6.32;;
48014;SDS011;33780;51.034;7.120;2023-02-15T06:12:05;14.77;;;5.57;;
48014;SDS011;33780;51.034;7.120;2023-02-15T06:14:30;14.02;;;5.82;;
48014;SDS011;33780;51.034;7.120;2023-02-15T06:16:55;17.98;;;6.68;;
48014;SDS011;33780;51.034;7.120;2023-02-15T06:19:21;14.20;;;5.97;;
48014;SDS011;33780;51.034;7.120;2023-02-15T06:21:47;15.65;;;5.95;;
48014;SDS011;33780;51.034;7.120;2023-02-15T06:24:13;14.15;;;6.05;;
48014;SDS011;33780;51.034;7.120;2023-02-15T06:26:38;16.98;;;5.88;;
48014;SDS011;33780;51.034;7.120;2023-02-15T06:29:03;17.58;;;5.78;;
48014;SDS011;33780;51.034;7.120;2023-02-15T06:31:29;12.98;;;5.95;;
48014;SDS011;33780;51.034;7.120;2023-02-15T06:33:54;16.77;;;6.05;;
48014;SDS011;33780;51.034;7.120;2023-02-15T06:36:26;15.25;;;6.25;;
48014;SDS011;33780;51.034;7.120;2023-02-15T06:38:52;15.60;;;6.10;;
48014;SDS011;33780;51.034;7.120;2023-02-15T06:41:17;15.73;;;5.93;;
48014;SDS011;33780;51.034;7.120;2023-02-15T06:43:43;15.90;;;6.20;;
48014;SDS011;33780;51.034;7.120;2023-02-15T06:46:08;15.23;;;6.43;;
48014;SDS011;33780;51.034;7.120;2023-02-15T06:48:33;16.05;;;6.00;;
48014;SDS011;33780;51.034;7.120;2023-02-15T06:50:58;12.65;;;5.72;;
48014;SDS011;33780;51.034;7.120;2023-02-15T06:53:24;14.93;;;6.18;;
48014;SDS011;33780;51.034;7.120;2023-02-15T06:55:49;12.73;;;5.80;;
48014;SDS011;33780;51.034;7.120;2023-02-15T06:58:14;15.95;;;6.18;;
48014;SDS011;33780;51.034;7.120;2023-02-15T07:00:39;13.98;;;5.63;;
48014;SDS011;33780;51.034;7.120;2023-02-15T07:03:05;13.45;;;5.53;;
48014;SDS011;33780;51.034;7.120;2023-02-15T07:05:32;18.35;;;6.32;;
48014;SDS011;33780;51.034;7.120;2023-02-15T07:07:58;13.65;;;5.55;;
48014;SDS011;33780;51.034;7.120;2023-02-15T07:10:24;14.85;;;5.65;;
48014;SDS011;33780;51.034;7.120;2023-02-15T07:12:50;14.23;;;5.85;;
48014;SDS011;33780;51.034;7.120;2023-02-15T07:15:16;12.18;;;5.38;;
48014;SDS011;33780;51.034;7.120;2023-02-15T07:17:43;14.50;;;5.95;;
48014;SDS011;33780;51.034;7.120;2023-02-15T07:20:10;14.93;;;5.65;;
48014;SDS011;33780;51.034;7.120;2023-02-15T07:22:41;15.52;;;5.80;;
48014;SDS011;33780;51.034;7.120;2023-02-15T07:25:07;18.02;;;6.25;;
48014;SDS011;33780;51.034;7.120;2023-02-15T07:27:34;14.57;;;5.43;;
48014;SDS011;33780;51.034;7.120;2023-02-15T07:30:00;12.20;;;5.75;;
48014;SDS011;33780;51.034;7.120;2023-02-15T07:32:29;15.48;;;6.03;;
48014;SDS011;33780;51.034;7.120;2023-02-15T07:34:55;14.00;;;5.43;;
48014;SDS011;33780;51.034;7.120;2023-02-15T07:37:22;14.63;;;5.50;;
48014;SDS011;33780;51.034;7.120;2023-02-15T07:39:47;12.65;;;5.25;;
48014;SDS011;33780;51.034;7.120;2023-02-15T07:42:12;14.80;;;5.88;;
48014;SDS011;33780;51.034;7.120;2023-02-15T07:44:37;15.48;;;5.95;;
48014;SDS011;33780;51.034;7.120;2023-02-15T07:47:03;13.98;;;6.10;;
48014;SDS011;33780;51.034;7.120;2023-02-15T07:49:28;14.88;;;6.15;;
48014;SDS011;33780;51.034;7.120;2023-02-15T07:51:53;15.70;;;5.55;;
48014;SDS011;33780;51.034;7.120;2023-02-15T07:54:19;15.57;;;6.03;;
48014;SDS011;33780;51.034;7.120;2023-02-15T07:56:44;14.15;;;6.03;;
48014;SDS011;33780;51.034;7.120;2023-02-15T07:59:09;13.00;;;5.75;;
48014;SDS011;33780;51.034;7.120;2023-02-15T08:01:35;14.70;;;6.13;;
48014;SDS011;33780;51.034;7.120;2023-02-15T08:04:03;12.38;;;5.50;;
48014;SDS011;33780;51.034;7.120;2023-02-15T08:06:31;14.32;;;5.78;;
48014;SDS011;33780;51.034;7.120;2023-02-15T08:08:58;12.93;;;5.60;;
48014;SDS011;33780;51.034;7.120;2023-02-15T08:11:24;12.93;;;6.13;;
48014;SDS011;33780;51.034;7.120;2023-02-15T08:13:58;16.35;;;6.63;;
48014;SDS011;33780;51.034;7.120;2023-02-15T08:16:25;14.55;;;5.72;;
48014;SDS011;33780;51.034;7.120;2023-02-15T08:21:56;14.27;;;5.82;;
48014;SDS011;33780;51.034;7.120;2023-02-15T08:24:24;12.63;;;5.93;;
48014;SDS011;33780;51.034;7.120;2023-02-15T08:26:51;15.10;;;5.93;;
48014;SDS011;33780;51.034;7.120;2023-02-15T08:29:18;16.42;;;6.22;;
48014;SDS011;33780;51.034;7.120;2023-02-15T08:31:44;12.88;;;5.18;;
48014;SDS011;33780;51.034;7.120;2023-02-15T08:34:12;12.52;;;5.47;;
48014;SDS011;33780;51.034;7.120;2023-02-15T08:36:40;16.27;;;5.72;;
48014;SDS011;33780;51.034;7.120;2023-02-15T08:39:07;14.02;;;5.57;;
48014;SDS011;33780;51.034;7.120;2023-02-15T08:41:33;14.48;;;6.03;;
48014;SDS011;33780;51.034;7.120;2023-02-15T08:44:01;11.98;;;5.45;;
48014;SDS011;33780;51.034;7.120;2023-02-15T08:46:30;13.07;;;5.57;;
48014;SDS011;33780;51.034;7.120;2023-02-15T08:48:57;12.80;;;5.47;;
48014;SDS011;33780;51.034;7.120;2023-02-15T08:51:24;11.00;;;4.90;;
48014;SDS011;33780;51.034;7.120;2023-02-15T08:53:52;14.27;;;5.65;;
48014;SDS011;33780;51.034;7.120;2023-02-15T08:56:20;12.63;;;5.47;;
48014;SDS011;33780;51.034;7.120;2023-02-15T08:58:47;17.45;;;5.65;;
48014;SDS011;33780;51.034;7.120;2023-02-15T09:01:13;16.92;;;5.95;;
48014;SDS011;33780;51.034;7.120;2023-02-15T09:03:45;13.93;;;5.28;;
48014;SDS011;33780;51.034;7.120;2023-02-15T09:06:11;14.15;;;5.18;;
48014;SDS011;33780;51.034;7.120;2023-02-15T09:08:37;12.23;;;5.40;;
48014;SDS011;33780;51.034;7.120;2023-02-15T09:11:06;11.35;;;4.82;;
48014;SDS011;33780;51.034;7.120;2023-02-15T09:13:34;11.05;;;4.50;;
48014;SDS011;33780;51.034;7.120;2023-02-15T09:16:03;11.82;;;4.97;;
48014;SDS011;33780;51.034;7.120;2023-02-15T09:18:30;11.75;;;4.95;;
48014;SDS011;33780;51.034;7.120;2023-02-15T09:21:03;11.38;;;5.05;;
48014;SDS011;33780;51.034;7.120;2023-02-15T09:23:33;11.98;;;4.93;;
48014;SDS011;33780;51.034;7.120;2023-02-15T09:26:01;12.57;;;5.05;;
48014;SDS011;33780;51.034;7.120;2023-02-15T09:28:28;12.43;;;5.00;;
48014;SDS011;33780;51.034;7.120;2023-02-15T09:30:53;15.52;;;5.47;;
48014;SDS011;33780;51.034;7.120;2023-02-15T09:33:20;11.38;;;4.85;;
48014;SDS011;33780;51.034;7.120;2023-02-15T09:35:46;11.52;;;5.38;;
48014;SDS011;33780;51.034;7.120;2023-02-15T09:38:12;14.90;;;4.97;;
48014;SDS011;33780;51.034;7.120;2023-02-15T09:40:40;12.15;;;4.70;;
48014;SDS011;33780;51.034;7.120;2023-02-15T09:43:16;10.18;;;4.32;;
48014;SDS011;33780;51.034;7.120;2023-02-15T09:46:04;11.48;;;5.13;;
48014;SDS011;33780;51.034;7.120;2023-02-15T09:48:46;10.90;;;4.43;;
48014;SDS011;33780;51.034;7.120;2023-02-15T09:54:13;10.57;;;4.82;;
48014;SDS011;33780;51.034;7.120;2023-02-15T09:56:58;10.98;;;4.85;;
48014;SDS011;33780;51.034;7.120;2023-02-15T10:10:36;11.88;;;4.20;;
48014;SDS011;33780;51.034;7.120;2023-02-15T10:13:31;11.45;;;5.00;;
48014;SDS011;33780;51.034;7.120;2023-02-15T10:19:12;8.85;;;4.40;;
48014;SDS011;33780;51.034;7.120;2023-02-15T10:21:52;11.52;;;4.78;;
48014;SDS011;33780;51.034;7.120;2023-02-15T10:24:41;9.15;;;4.30;;
48014;SDS011;33780;51.034;7.120;2023-02-15T10:27:22;13.25;;;4.68;;
48014;SDS011;33780;51.034;7.120;2023-02-15T10:35:50;10.10;;;4.43;;
48014;SDS011;33780;51.034;7.120;2023-02-15T10:41:17;12.05;;;4.38;;
48014;SDS011;33780;51.034;7.120;2023-02-15T10:43:56;9.32;;;4.63;;
48014;SDS011;33780;51.034;7.120;2023-02-15T11:01:02;11.60;;;4.50;;
48014;SDS011;33780;51.034;7.120;2023-02-15T11:03:47;10.55;;;4.28;;
48014;SDS011;33780;51.034;7.120;2023-02-15T11:06:42;13.82;;;4.78;;
48014;SDS011;33780;51.034;7.120;2023-02-15T11:09:24;13.27;;;4.60;;
48014;SDS011;33780;51.034;7.120;2023-02-15T11:12:07;9.50;;;4.22;;
48014;SDS011;33780;51.034;7.120;2023-02-15T11:14:43;9.03;;;4.40;;
48014;SDS011;33780;51.034;7.120;2023-02-15T11:17:36;11.05;;;4.28;;
48014;SDS011;33780;51.034;7.120;2023-02-15T11:22:46;11.25;;;4.60;;
48014;SDS011;33780;51.034;7.120;2023-02-15T11:25:19;12.75;;;4.40;;
48014;SDS011;33780;51.034;7.120;2023-02-15T11:27:50;13.90;;;5.55;;
48014;SDS011;33780;51.034;7.120;2023-02-15T11:30:43;11.35;;;4.88;;
48014;SDS011;33780;51.034;7.120;2023-02-15T11:33:22;10.45;;;4.55;;
48014;SDS011;33780;51.034;7.120;2023-02-15T11:38:38;9.13;;;4.10;;
48014;SDS011;33780;51.034;7.120;2023-02-15T11:46:33;10.38;;;4.15;;
48014;SDS011;33780;51.034;7.120;2023-02-15T11:48:59;11.63;;;4.88;;
48014;SDS011;33780;51.034;7.120;2023-02-15T11:51:24;9.10;;;4.13;;
48014;SDS011;33780;51.034;7.120;2023-02-15T11:54:01;10.30;;;4.00;;
48014;SDS011;33780;51.034;7.120;2023-02-15T11:56:31;9.75;;;4.22;;
48014;SDS011;33780;51.034;7.120;2023-02-15T11:59:31;8.38;;;3.78;;
48014;SDS011;33780;51.034;7.120;2023-02-15T12:01:56;9.02;;;4.50;;
48014;SDS011;33780;51.034;7.120;2023-02-15T12:04:29;8.40;;;4.13;;
48014;SDS011;33780;51.034;7.120;2023-02-15T12:07:20;9.10;;;4.20;;
48014;SDS011;33780;51.034;7.120;2023-02-15T12:10:20;11.82;;;4.47;;
48014;SDS011;33780;51.034;7.120;2023-02-15T12:12:53;8.32;;;3.75;;
48014;SDS011;33780;51.034;7.120;2023-02-15T12:15:44;10.35;;;4.45;;
48014;SDS011;33780;51.034;7.120;2023-02-15T12:21:08;10.20;;;4.25;;
48014;SDS011;33780;51.034;7.120;2023-02-15T12:23:41;13.35;;;4.82;;
48014;SDS011;33780;51.034;7.120;2023-02-15T12:26:13;11.80;;;4.57;;
48014;SDS011;33780;51.034;7.120;2023-02-15T12:28:42;9.05;;;4.05;;
48014;SDS011;33780;51.034;7.120;2023-02-15T12:31:24;9.18;;;4.22;;
48014;SDS011;33780;51.034;7.120;2023-02-15T12:33:56;11.68;;;4.15;;
48014;SDS011;33780;51.034;7.120;2023-02-15T12:37:02;11.13;;;4.75;;
48014;SDS011;33780;51.034;7.120;2023-02-15T12:39:27;11.52;;;4.75;;
48014;SDS011;33780;51.034;7.120;2023-02-15T12:44:26;10.63;;;3.93;;
48014;SDS011;33780;51.034;7.120;2023-02-15T12:46:58;11.40;;;4.07;;
48014;SDS011;33780;51.034;7.120;2023-02-15T12:49:26;11.40;;;4.05;;
48014;SDS011;33780;51.034;7.120;2023-02-15T12:52:00;9.88;;;4.53;;
48014;SDS011;33780;51.034;7.120;2023-02-15T12:56:58;10.80;;;4.88;;
48014;SDS011;33780;51.034;7.120;2023-02-15T12:59:23;11.30;;;4.47;;
48014;SDS011;33780;51.034;7.120;2023-02-15T13:01:50;8.73;;;3.75;;
48014;SDS011;33780;51.034;7.120;2023-02-15T13:04:21;11.68;;;4.13;;
48014;SDS011;33780;51.034;7.120;2023-02-15T13:06:48;7.72;;;3.60;;
48014;SDS011;33780;51.034;7.120;2023-02-15T13:09:34;10.07;;;4.32;;
48014;SDS011;33780;51.034;7.120;2023-02-15T13:14:36;11.30;;;4.30;;
48014;SDS011;33780;51.034;7.120;2023-02-15T13:17:03;10.85;;;4.18;;
48014;SDS011;33780;51.034;7.120;2023-02-15T13:19:31;10.23;;;4.38;;
48014;SDS011;33780;51.034;7.120;2023-02-15T13:22:02;12.93;;;4.68;;
48014;SDS011;33780;51.034;7.120;2023-02-15T13:24:41;9.57;;;4.30;;
48014;SDS011;33780;51.034;7.120;2023-02-15T13:27:12;8.57;;;3.72;;
48014;SDS011;33780;51.034;7.120;2023-02-15T13:29:45;10.25;;;4.50;;
48014;SDS011;33780;51.034;7.120;2023-02-15T13:34:52;9.35;;;4.75;;
48014;SDS011;33780;51.034;7.120;2023-02-15T13:40:02;10.55;;;4.60;;
48014;SDS011;33780;51.034;7.120;2023-02-15T13:48:00;11.43;;;4.85;;
48014;SDS011;33780;51.034;7.120;2023-02-15T13:56:43;10.13;;;4.65;;
48014;SDS011;33780;51.034;7.120;2023-02-15T14:01:57;8.32;;;4.50;;
48014;SDS011;33780;51.034;7.120;2023-02-15T14:10:21;8.90;;;4.20;;
48014;SDS011;33780;51.034;7.120;2023-02-15T14:15:35;11.63;;;4.72;;
48014;SDS011;33780;51.034;7.120;2023-02-15T14:20:45;9.52;;;4.63;;
48014;SDS011;33780;51.034;7.120;2023-02-15T14:28:45;11.73;;;4.57;;
48014;SDS011;33780;51.034;7.120;2023-02-15T14:31:31;10.80;;;4.80;;
48014;SDS011;33780;51.034;7.120;2023-02-15T14:34:03;10.50;;;4.68;;
48014;SDS011;33780;51.034;7.120;2023-02-15T14:36:29;12.27;;;5.03;;
48014;SDS011;33780;51.034;7.120;2023-02-15T14:38:59;10.50;;;4.60;;
48014;SDS011;33780;51.034;7.120;2023-02-15T14:41:43;11.38;;;4.88;;
48014;SDS011;33780;51.034;7.120;2023-02-15T14:44:31;9.65;;;4.55;;
48014;SDS011;33780;51.034;7.120;2023-02-15T14:47:16;10.50;;;4.20;;
48014;SDS011;33780;51.034;7.120;2023-02-15T14:49:47;10.38;;;4.20;;
48014;SDS011;33780;51.034;7.120;2023-02-15T14:52:13;11.98;;;4.82;;
48014;SDS011;33780;51.034;7.120;2023-02-15T15:02:07;10.18;;;4.72;;
48014;SDS011;33780;51.034;7.120;2023-02-15T15:07:46;10.40;;;4.45;;
48014;SDS011;33780;51.034;7.120;2023-02-15T15:12:46;10.48;;;4.60;;
48014;SDS011;33780;51.034;7.120;2023-02-15T15:18:01;9.20;;;4.53;;
48014;SDS011;33780;51.034;7.120;2023-02-15T15:20:47;9.57;;;4.30;;
48014;SDS011;33780;51.034;7.120;2023-02-15T15:25:42;11.43;;;4.85;;
48014;SDS011;33780;51.034;7.120;2023-02-15T15:33:59;13.20;;;5.20;;
48014;SDS011;33780;51.034;7.120;2023-02-15T15:42:31;12.48;;;5.10;;
48014;SDS011;33780;51.034;7.120;2023-02-15T15:50:53;12.25;;;5.03;;
48014;SDS011;33780;51.034;7.120;2023-02-15T15:53:24;13.10;;;5.13;;
48014;SDS011;33780;51.034;7.120;2023-02-15T15:55:52;10.38;;;4.95;;
48014;SDS011;33780;51.034;7.120;2023-02-15T15:58:23;13.75;;;5.15;;
48014;SDS011;33780;51.034;7.120;2023-02-15T16:00:54;11.68;;;5.45;;
48014;SDS011;33780;51.034;7.120;2023-02-15T16:03:31;9.65;;;4.60;;
48014;SDS011;33780;51.034;7.120;2023-02-15T16:06:00;11.45;;;5.00;;
48014;SDS011;33780;51.034;7.120;2023-02-15T16:08:33;13.18;;;4.72;;
48014;SDS011;33780;51.034;7.120;2023-02-15T16:11:13;11.07;;;4.30;;
48014;SDS011;33780;51.034;7.120;2023-02-15T16:13:52;10.00;;;4.93;;
48014;SDS011;33780;51.034;7.120;2023-02-15T16:16:25;10.13;;;4.72;;
48014;SDS011;33780;51.034;7.120;2023-02-15T16:18:59;12.05;;;5.07;;
48014;SDS011;33780;51.034;7.120;2023-02-15T16:21:36;14.30;;;5.05;;
48014;SDS011;33780;51.034;7.120;2023-02-15T16:27:08;10.07;;;4.63;;
48014;SDS011;33780;51.034;7.120;2023-02-15T16:29:48;10.52;;;4.93;;
48014;SDS011;33780;51.034;7.120;2023-02-15T16:32:27;12.52;;;5.03;;
48014;SDS011;33780;51.034;7.120;2023-02-15T16:34:56;11.32;;;4.40;;
48014;SDS011;33780;51.034;7.120;2023-02-15T16:37:40;8.25;;;3.97;;
48014;SDS011;33780;51.034;7.120;2023-02-15T16:40:11;11.25;;;4.63;;
48014;SDS011;33780;51.034;7.120;2023-02-15T16:42:55;10.07;;;4.78;;
48014;SDS011;33780;51.034;7.120;2023-02-15T16:45:29;12.13;;;4.75;;
48014;SDS011;33780;51.034;7.120;2023-02-15T16:47:57;9.23;;;4.43;;
48014;SDS011;33780;51.034;7.120;2023-02-15T16:50:28;12.20;;;4.38;;
48014;SDS011;33780;51.034;7.120;2023-02-15T16:52:58;9.13;;;4.60;;
48014;SDS011;33780;51.034;7.120;2023-02-15T16:55:25;11.27;;;4.38;;
48014;SDS011;33780;51.034;7.120;2023-02-15T16:57:56;10.45;;;4.22;;
48014;SDS011;33780;51.034;7.120;2023-02-15T17:00:25;8.65;;;4.57;;
48014;SDS011;33780;51.034;7.120;2023-02-15T17:03:06;10.38;;;4.53;;
48014;SDS011;33780;51.034;7.120;2023-02-15T17:05:46;11.05;;;4.50;;
48014;SDS011;33780;51.034;7.120;2023-02-15T17:08:45;8.10;;;3.80;;
48014;SDS011;33780;51.034;7.120;2023-02-15T17:11:17;9.70;;;4.50;;
48014;SDS011;33780;51.034;7.120;2023-02-15T17:16:30;9.50;;;4.53;;
48014;SDS011;33780;51.034;7.120;2023-02-15T17:18:58;9.80;;;3.75;;
48014;SDS011;33780;51.034;7.120;2023-02-15T17:21:26;9.88;;;4.18;;
48014;SDS011;33780;51.034;7.120;2023-02-15T17:23:58;10.18;;;3.95;;
48014;SDS011;33780;51.034;7.120;2023-02-15T17:26:27;10.45;;;4.35;;
48014;SDS011;33780;51.034;7.120;2023-02-15T17:29:01;9.52;;;4.15;;
48014;SDS011;33780;51.034;7.120;2023-02-15T17:31:36;9.10;;;4.15;;
48014;SDS011;33780;51.034;7.120;2023-02-15T17:34:01;9.25;;;4.03;;
48014;SDS011;33780;51.034;7.120;2023-02-15T17:36:28;11.52;;;4.50;;
48014;SDS011;33780;51.034;7.120;2023-02-15T17:41:24;8.05;;;3.90;;
48014;SDS011;33780;51.034;7.120;2023-02-15T17:43:50;9.23;;;4.43;;
48014;SDS011;33780;51.034;7.120;2023-02-15T17:46:16;7.78;;;3.17;;
48014;SDS011;33780;51.034;7.120;2023-02-15T17:48:44;9.30;;;3.97;;